Midway, Iowa
Current Conditions -  °F | °C
As of 11:52 PM on Friday 19 Dec 2014 (Local Time) from KCID Reporting Station
Overcast Overcast  
Wind Chill: 23°   Ceiling: 2200
Heat Index: 30°   Visibility: 9mi
Dew Point: 23°   Wind: 7mph
Humidity: 75%   Direction: 160°SSE
Pressure: 30.23"   Gusts: NA
Location:  42.0672°N, 91.5782°W
Report Text: KCID 200552Z AUTO 16006KT 9SM OVC022 M01/M05 A3023 RMK AO2 SLP246 T10111050 11011 21017 400001056 51001 $
Loading
Personal Weather Stations






























Interactive Weather Map New forecast layout! Learn more

10-Day Weather Forecast

Advertisements
Track Severe Weather on mobile